Aérodrome :
LOGIN :

S'inscrire | Disclaimer

   EN    FR    IT 

 










Légende :    VFR   VFR Marginal   IFR   IFR Intensif   IFR Très Intensif
Visi : 
Plafond : 
>= 8 km
>= 3000ft
5 à 8 km
1000 à 3000 ft
1500m à 5 km
500 à 1000 ft
800 à 1500m
200 à 500 ft
< 800m
< 200 ft
Symboles :   Orages  Brouillard  Fortes neiges  Fortes précipitations  Vent > 20 kt
SIGMETs :   Divers  Orages  Givrage  Turbulence  Onde Orograph.  Cendres Volcan.







- Altitude de l'aérodrome : 230 ft
- Code IATA : TBJ


DTKA - Tabarka 7 Novembre

DERNIER METAR :
  • 201900Z 20003KT 150V260 9999 SCT020 14/10 Q1023 NOSIG

METARs EXPIRÉS :
  • 201800Z 27006KT 9999 BKN020 16/11 Q1023 NOSIG
  • 201700Z 28007KT 9999 BKN020 16/10 Q1023 NOSIG

TAF TAF DTKA
Valide du 20 à 19h jusqu'au 21 à 04h UTC


201840Z 2019/2104 24005KT 9999 SCT020
Pas de NOTAMs connus pour ce terrain.



MET'MAP, la Météo Aéronautique d'un coup d'oeil ! - Copyright ORBIFLY Décembre 2007 - Disclaimer

ORBIFLY MET'MAP TEAM :

Programmation & Développement : Alexandra Zaïnal
Conception & Développement : Baudouin d'Aumeries
Co-Programmation & Développement : Marc-Olivier Méhu
Soutien technique & logistique : Manuel Goepfert

Contact : metmap@orbifly.com




SOURCES & CREDITS :

   NOAA